OITK  Khoy  Airport

Khoy, Iran

Add Bookmark
ICAO OITK
IATA KHY
Type Airport
Status Operational
Latitude
38° 25' 39" N
38.427502
Longitude
44° 58' 24" E
44.973598
Local (DST + 5) UTC (GMT + 4)
May 22, 2015 12:55 May 22, 2015 08:25
Sunrise-Sunset Local UTC
Begin Civil Twilight 05:41 01:11
Sunrise 06:11 01:41
Sunset 08:41 16:11
End Civil Twilight 09:12 16:42
VFR
VFR
MVFR
MVFR
IFR
VFR
LIFR
VFR
Unknown
Unavailable

Current Weather

METAR Observed VFR
OITK 211000Z 03004KT 9999 FEW035 27/06 Q1016 Thu, May 21, 2015 @ 10:00 UTC
(22 Hours, 25 Minutes ago)
Visual Flight Rules
Wind Visibility Clouds Conditions
030° at 4 knots (7 kph) 10 km or more
  • Few at 3,500 ft AGL
  • No significant weather
Temperatures Readings Precipitation
Current Temp
27°C
81°F
Dewpoint
6°C
43°F
Humidity 26%
Altimeter 30" Hg
Sea Level Pressure 1,016 mb
Field Elevation
1,107 m
3,632 ft
None Recorded
-
-

CheckWX.com is intended as a tool to help pilots better visualize weather data. It is not intended as a substitute for an official weather briefing obtained from a Flight Service Station. CheckWX.com does not meet the FAA requirements for an official pre-flight weather briefing. Therefore, it's important that pilots still call and obtain an official FSS pre-flight weather briefing.

© 2007-2015 CheckWX.com
08:25:27 UTC